createdAt,value
2022-08-04T00:00:09.660Z,7.3
2022-08-04T00:01:06.003Z,7.3
2022-08-04T00:02:09.780Z,7.3
2022-08-04T00:03:13.469Z,7.3
2022-08-04T00:04:05.337Z,7.5
2022-08-04T00:05:05.539Z,7.5
2022-08-04T00:06:09.574Z,7.5
2022-08-04T00:07:07.060Z,7.5
2022-08-04T00:08:14.378Z,7.5
2022-08-04T00:09:05.381Z,7.3
2022-08-04T00:10:02.910Z,7.3
2022-08-04T00:11:06.202Z,7.3
2022-08-04T00:12:00.876Z,7.3
2022-08-04T00:13:03.116Z,7.3
2022-08-04T00:14:04.137Z,7.7
2022-08-04T00:15:01.990Z,7.7
2022-08-04T00:16:05.326Z,7.7
2022-08-04T00:17:04.658Z,7.7
2022-08-04T00:18:04.051Z,7.7
2022-08-04T00:19:03.998Z,7.8
2022-08-04T00:20:03.121Z,7.8
2022-08-04T00:21:05.566Z,7.8
2022-08-04T00:22:03.737Z,7.8
2022-08-04T00:23:01.313Z,7.8
2022-08-04T00:24:10.536Z,7.3
2022-08-04T00:25:03.362Z,7.3
2022-08-04T00:26:00.546Z,7.3
2022-08-04T00:27:00.720Z,7.3
2022-08-04T00:28:00.456Z,7.3
2022-08-04T00:29:00.782Z,8.1
2022-08-04T00:30:00.754Z,8.1
2022-08-04T00:31:00.503Z,8.1
2022-08-04T00:32:01.751Z,8.1
2022-08-04T00:33:01.403Z,8.1
2022-08-04T00:34:00.433Z,7.7
2022-08-04T00:35:00.913Z,7.7
2022-08-04T00:36:01.597Z,7.7
2022-08-04T00:37:00.336Z,7.7
2022-08-04T00:38:01.214Z,7.7
2022-08-04T00:39:01.185Z,7.4
2022-08-04T00:40:02.295Z,7.4
2022-08-04T00:41:17.590Z,7.4
2022-08-04T00:42:20.130Z,7.4
2022-08-04T00:43:20.151Z,7.4
2022-08-04T00:44:11.199Z,7.9
2022-08-04T00:45:20.129Z,7.9
2022-08-04T00:46:17.295Z,7.9
2022-08-04T00:47:07.677Z,7.9
2022-08-04T00:48:18.506Z,7.9
2022-08-04T00:49:00.228Z,7.4
2022-08-04T00:50:09.994Z,7.4
2022-08-04T00:51:20.131Z,7.4
2022-08-04T00:52:32.823Z,7.4
2022-08-04T00:53:12.701Z,7.4
2022-08-04T00:54:18.867Z,7.6
2022-08-04T00:55:10.191Z,7.6
2022-08-04T00:56:14.513Z,7.6
2022-08-04T00:57:10.018Z,7.6
2022-08-04T00:58:10.156Z,7.6
2022-08-04T00:59:20.127Z,8.2
2022-08-04T01:00:05.322Z,8.2
2022-08-04T01:01:03.181Z,8.2
2022-08-04T01:02:10.427Z,8.2
2022-08-04T01:03:10.061Z,8.2
2022-08-04T01:04:13.890Z,8.3
2022-08-04T01:05:20.129Z,8.3
2022-08-04T01:06:01.257Z,8.3
2022-08-04T01:07:07.577Z,8.3
2022-08-04T01:08:10.199Z,8.3
2022-08-04T01:09:21.557Z,7.7
2022-08-04T01:10:11.258Z,7.7
2022-08-04T01:11:11.217Z,7.7
2022-08-04T01:12:11.198Z,7.7
2022-08-04T01:13:10.029Z,7.7
2022-08-04T01:14:13.430Z,7.8
2022-08-04T01:15:04.579Z,7.8
2022-08-04T01:16:03.852Z,7.8
2022-08-04T01:17:18.421Z,7.8
2022-08-04T01:18:05.019Z,7.8
2022-08-04T01:19:02.584Z,8.0
2022-08-04T01:20:04.603Z,8.0
2022-08-04T01:21:20.127Z,8.0
2022-08-04T01:22:11.189Z,8.0
2022-08-04T01:23:17.551Z,8.0
2022-08-04T01:24:10.163Z,8.2
2022-08-04T01:25:20.115Z,8.2
2022-08-04T01:26:42.344Z,8.2
2022-08-04T01:27:10.326Z,8.2
2022-08-04T01:28:20.146Z,8.2
2022-08-04T01:29:03.822Z,8.1
2022-08-04T01:30:01.013Z,8.1
2022-08-04T01:31:12.975Z,8.1
2022-08-04T01:32:02.323Z,8.1
2022-08-04T01:33:03.723Z,8.1
2022-08-04T01:34:04.961Z,8.2
2022-08-04T01:35:04.613Z,8.2
2022-08-04T01:36:04.834Z,8.2
2022-08-04T01:37:07.740Z,8.2
2022-08-04T01:38:18.440Z,8.2
2022-08-04T01:39:01.164Z,8.4
2022-08-04T01:40:04.263Z,8.4
2022-08-04T01:41:06.631Z,8.4
2022-08-04T01:42:01.218Z,8.4
2022-08-04T01:43:02.346Z,8.4
2022-08-04T01:44:01.771Z,8.5
2022-08-04T01:45:04.269Z,8.5
2022-08-04T01:46:02.608Z,8.5
2022-08-04T01:47:00.906Z,8.5
2022-08-04T01:48:02.542Z,8.5
2022-08-04T01:49:01.728Z,8.5
2022-08-04T01:50:07.628Z,8.5
2022-08-04T01:51:04.889Z,8.5
2022-08-04T01:52:04.459Z,8.5
2022-08-04T01:53:02.817Z,8.5
2022-08-04T01:54:00.780Z,8.5
2022-08-04T01:55:03.049Z,8.5
2022-08-04T01:56:01.728Z,8.5
2022-08-04T01:57:37.830Z,8.5
2022-08-04T01:58:04.248Z,8.5
2022-08-04T01:59:02.635Z,9.1
2022-08-04T02:00:00.400Z,9.1
2022-08-04T02:01:08.122Z,9.1
2022-08-04T02:02:00.573Z,9.1
2022-08-04T02:03:00.335Z,9.1
2022-08-04T02:04:21.746Z,8.7
2022-08-04T02:05:00.539Z,8.7
2022-08-04T02:06:07.413Z,8.7
2022-08-04T02:07:20.373Z,8.7
2022-08-04T02:08:12.581Z,8.7
2022-08-04T02:09:15.670Z,8.4
2022-08-04T02:10:20.129Z,8.4
2022-08-04T02:11:11.259Z,8.4
2022-08-04T02:12:15.796Z,8.4
2022-08-04T02:13:20.154Z,8.4
2022-08-04T02:14:09.777Z,8.9
2022-08-04T02:15:09.530Z,8.9
2022-08-04T02:16:15.204Z,8.9
2022-08-04T02:17:01.191Z,8.9
2022-08-04T02:18:03.514Z,8.9
2022-08-04T02:19:20.133Z,8.8
2022-08-04T02:20:06.721Z,8.8
2022-08-04T02:21:01.247Z,8.8
2022-08-04T02:22:13.598Z,8.8
2022-08-04T02:23:12.907Z,8.8
2022-08-04T02:24:05.562Z,9.0
2022-08-04T02:25:04.837Z,9.0
2022-08-04T02:26:03.453Z,9.0
2022-08-04T02:27:03.054Z,9.0
2022-08-04T02:28:07.169Z,9.0
2022-08-04T02:29:01.276Z,9.1
2022-08-04T02:30:04.016Z,9.1
2022-08-04T02:31:07.703Z,9.1
2022-08-04T02:32:05.456Z,9.1
2022-08-04T02:33:02.642Z,9.1
2022-08-04T02:34:17.522Z,8.9
2022-08-04T02:35:05.891Z,8.9
2022-08-04T02:36:03.076Z,8.9
2022-08-04T02:37:03.457Z,8.9
2022-08-04T02:38:10.913Z,8.9
2022-08-04T02:39:02.773Z,9.3
2022-08-04T02:40:02.584Z,9.3
2022-08-04T02:41:00.653Z,9.3
2022-08-04T02:42:02.884Z,9.3
2022-08-04T02:43:03.031Z,9.3
2022-08-04T02:44:03.569Z,9.4
2022-08-04T02:45:01.638Z,9.4
2022-08-04T02:46:02.314Z,9.4
2022-08-04T02:47:00.411Z,9.4
2022-08-04T02:48:29.683Z,9.4
2022-08-04T02:49:04.554Z,9.3
2022-08-04T02:50:01.572Z,9.3
2022-08-04T02:51:02.624Z,9.3
2022-08-04T02:52:01.642Z,9.3
2022-08-04T02:53:02.586Z,9.3
2022-08-04T02:54:04.178Z,9.8
2022-08-04T02:55:01.895Z,9.8
2022-08-04T02:56:01.769Z,9.8
2022-08-04T02:57:01.262Z,9.8
2022-08-04T02:58:02.925Z,9.8
2022-08-04T02:59:04.291Z,9.3
2022-08-04T03:00:11.786Z,9.3
2022-08-04T03:01:00.702Z,9.3
2022-08-04T03:02:00.221Z,9.3
2022-08-04T03:03:17.713Z,9.3
2022-08-04T03:04:24.499Z,10.0
2022-08-04T03:05:10.283Z,10.0
2022-08-04T03:06:10.641Z,10.0
2022-08-04T03:07:20.278Z,10.0
2022-08-04T03:08:13.475Z,10.0
2022-08-04T03:09:11.251Z,9.8
2022-08-04T03:10:01.228Z,9.8
2022-08-04T03:11:20.138Z,9.8
2022-08-04T03:12:11.200Z,9.8
2022-08-04T03:13:11.220Z,9.8
2022-08-04T03:14:16.001Z,9.6
2022-08-04T03:15:11.218Z,9.6
2022-08-04T03:16:13.211Z,9.6
2022-08-04T03:17:20.408Z,9.6
2022-08-04T03:18:20.133Z,9.6
2022-08-04T03:19:10.210Z,9.8
2022-08-04T03:20:20.141Z,9.8
2022-08-04T03:21:20.142Z,9.8
2022-08-04T03:22:13.159Z,9.8
2022-08-04T03:23:17.574Z,9.8
2022-08-04T03:24:20.480Z,9.7
2022-08-04T03:25:17.668Z,9.7
2022-08-04T03:26:20.155Z,9.7
2022-08-04T03:27:11.486Z,9.7
2022-08-04T03:28:20.162Z,9.7
2022-08-04T03:29:16.026Z,9.7
2022-08-04T03:30:03.594Z,9.7
2022-08-04T03:31:07.604Z,9.7
2022-08-04T03:32:11.285Z,9.7
2022-08-04T03:33:17.635Z,9.7
2022-08-04T03:34:10.204Z,10.0
2022-08-04T03:35:01.317Z,10.0
2022-08-04T03:36:07.644Z,10.0
2022-08-04T03:37:20.391Z,10.0
2022-08-04T03:38:19.200Z,10.0
2022-08-04T03:39:17.457Z,10.4
2022-08-04T03:40:20.162Z,10.4
2022-08-04T03:41:13.453Z,10.4
2022-08-04T03:42:20.247Z,10.4
2022-08-04T03:43:59.439Z,10.4
2022-08-04T03:44:20.132Z,10.5
2022-08-04T03:45:23.422Z,10.5
2022-08-04T03:46:20.183Z,10.5
2022-08-04T03:47:20.389Z,10.5
2022-08-04T03:48:10.240Z,10.5
2022-08-04T03:49:09.401Z,10.2
2022-08-04T03:50:20.163Z,10.2
2022-08-04T03:51:34.909Z,10.2
2022-08-04T03:52:11.186Z,10.2
2022-08-04T03:53:17.495Z,10.2
2022-08-04T03:54:17.661Z,10.5
2022-08-04T03:55:18.052Z,10.5
2022-08-04T03:56:20.240Z,10.5
2022-08-04T03:57:20.385Z,10.5
2022-08-04T03:58:20.136Z,10.5
2022-08-04T03:59:20.138Z,10.6
2022-08-04T04:00:11.142Z,10.6
2022-08-04T04:01:20.196Z,10.6
2022-08-04T04:02:20.181Z,10.6
2022-08-04T04:03:28.201Z,10.6
2022-08-04T04:04:17.865Z,11.0
2022-08-04T04:05:11.200Z,11.0
2022-08-04T04:06:12.360Z,11.0
2022-08-04T04:07:11.202Z,11.0
2022-08-04T04:08:13.751Z,11.0
2022-08-04T04:09:20.567Z,10.9
2022-08-04T04:10:21.348Z,10.9
2022-08-04T04:11:20.135Z,10.9
2022-08-04T04:12:10.200Z,10.9
2022-08-04T04:13:18.938Z,10.9
2022-08-04T04:14:03.523Z,10.6
2022-08-04T04:15:17.430Z,10.6
2022-08-04T04:16:02.319Z,10.6
2022-08-04T04:17:07.789Z,10.6
2022-08-04T04:18:20.136Z,10.6
2022-08-04T04:19:10.190Z,10.9
2022-08-04T04:20:20.131Z,10.9
2022-08-04T04:21:18.178Z,10.9
2022-08-04T04:22:03.473Z,10.9
2022-08-04T04:23:00.252Z,10.9
2022-08-04T04:24:06.338Z,10.9
2022-08-04T04:25:09.134Z,10.9
2022-08-04T04:26:20.135Z,10.9
2022-08-04T04:27:08.217Z,10.9
2022-08-04T04:28:46.123Z,10.9
2022-08-04T04:29:11.211Z,10.6
2022-08-04T04:30:05.626Z,10.6
2022-08-04T04:31:07.729Z,10.6
2022-08-04T04:32:12.671Z,10.6
2022-08-04T04:33:20.131Z,10.6
2022-08-04T04:34:20.126Z,10.9
2022-08-04T04:35:17.555Z,10.9
2022-08-04T04:36:18.369Z,10.9
2022-08-04T04:37:11.534Z,10.9
2022-08-04T04:38:16.735Z,10.9
2022-08-04T04:39:13.550Z,10.6
2022-08-04T04:40:07.733Z,10.6
2022-08-04T04:41:17.517Z,10.6
2022-08-04T04:42:01.261Z,10.6
2022-08-04T04:43:13.685Z,10.6
2022-08-04T04:44:10.190Z,10.2
2022-08-04T04:45:20.136Z,10.2
2022-08-04T04:46:15.331Z,10.2
2022-08-04T04:47:10.618Z,10.2
2022-08-04T04:48:10.906Z,10.2
2022-08-04T04:49:13.632Z,10.3
2022-08-04T04:50:08.733Z,10.3
2022-08-04T04:51:12.829Z,10.3
2022-08-04T04:52:16.953Z,10.3
2022-08-04T04:53:09.958Z,10.3
2022-08-04T04:54:03.515Z,10.7
2022-08-04T04:55:13.684Z,10.7
2022-08-04T04:56:16.147Z,10.7
2022-08-04T04:57:13.890Z,10.7
2022-08-04T04:58:01.099Z,10.7
2022-08-04T04:59:02.198Z,9.9
2022-08-04T05:00:06.770Z,9.9
2022-08-04T05:01:06.766Z,9.9
2022-08-04T05:02:10.193Z,9.9
2022-08-04T05:03:11.267Z,9.9
2022-08-04T05:04:07.807Z,9.7
2022-08-04T05:05:10.169Z,9.7
2022-08-04T05:06:10.198Z,9.7
2022-08-04T05:07:17.581Z,9.7
2022-08-04T05:08:43.320Z,9.7
2022-08-04T05:09:17.123Z,9.3
2022-08-04T05:10:11.200Z,9.3
2022-08-04T05:11:13.439Z,9.3
2022-08-04T05:14:32.719Z,9.3
2022-08-04T05:14:34.683Z,9.3
2022-08-04T05:14:38.768Z,9.4
2022-08-04T05:15:03.508Z,9.4
2022-08-04T05:16:06.023Z,9.4
2022-08-04T05:17:01.297Z,9.4
2022-08-04T05:18:02.169Z,9.4
2022-08-04T05:19:08.732Z,9.2
2022-08-04T05:20:08.787Z,9.2
2022-08-04T05:21:18.429Z,9.2
2022-08-04T05:22:14.265Z,9.2
2022-08-04T05:23:05.527Z,9.2
2022-08-04T05:24:05.386Z,8.8
2022-08-04T05:25:06.065Z,8.8
2022-08-04T05:26:06.612Z,8.8
2022-08-04T05:27:04.203Z,8.8
2022-08-04T05:28:08.853Z,8.8
2022-08-04T05:29:06.432Z,8.3
2022-08-04T05:30:03.230Z,8.3
2022-08-04T05:31:05.171Z,8.3
2022-08-04T05:32:03.864Z,8.3
2022-08-04T05:33:08.153Z,8.3
2022-08-04T05:34:07.988Z,8.4
2022-08-04T05:35:10.304Z,8.4
2022-08-04T05:36:18.418Z,8.4
2022-08-04T05:37:07.909Z,8.4
2022-08-04T05:38:02.281Z,8.4
2022-08-04T05:39:01.382Z,8.3
2022-08-04T05:40:04.176Z,8.3
2022-08-04T05:41:01.655Z,8.3
2022-08-04T05:42:04.405Z,8.3
2022-08-04T05:43:00.553Z,8.3
2022-08-04T05:44:02.039Z,8.0
2022-08-04T05:45:02.015Z,8.0
2022-08-04T05:46:00.991Z,8.0
2022-08-04T05:47:01.938Z,8.0
2022-08-04T05:48:02.565Z,8.0
2022-08-04T05:49:01.018Z,7.9
2022-08-04T05:50:03.519Z,7.9
2022-08-04T05:51:02.002Z,7.9
2022-08-04T05:52:01.726Z,7.9
2022-08-04T05:53:01.502Z,7.9
2022-08-04T05:54:01.641Z,7.9
2022-08-04T05:55:01.168Z,7.9
2022-08-04T05:56:02.178Z,7.9
2022-08-04T05:57:03.385Z,7.9
2022-08-04T05:58:01.074Z,7.9
2022-08-04T05:59:01.928Z,7.6
2022-08-04T06:00:25.180Z,7.6
2022-08-04T06:01:01.081Z,7.6
2022-08-04T06:02:01.720Z,7.6
2022-08-04T06:03:01.324Z,7.6
2022-08-04T06:04:04.738Z,8.1
2022-08-04T06:05:01.268Z,8.1
2022-08-04T06:06:00.675Z,8.1
2022-08-04T06:07:00.576Z,8.1
2022-08-04T06:08:12.332Z,8.1
2022-08-04T06:09:00.385Z,7.7
2022-08-04T06:10:00.472Z,7.7
2022-08-04T06:11:04.987Z,7.7
2022-08-04T06:12:05.880Z,7.7
2022-08-04T06:13:06.274Z,7.7
2022-08-04T06:14:05.239Z,7.6
2022-08-04T06:15:01.100Z,7.6
2022-08-04T06:16:01.591Z,7.6
2022-08-04T06:17:03.579Z,7.6
2022-08-04T06:19:57.670Z,7.6
2022-08-04T06:20:01.129Z,7.4
2022-08-04T06:20:18.280Z,7.4
2022-08-04T06:21:02.460Z,7.4
2022-08-04T06:22:02.999Z,7.4
2022-08-04T06:23:04.073Z,7.4
2022-08-04T06:24:04.647Z,7.9
2022-08-04T06:25:04.112Z,7.9
2022-08-04T06:26:01.236Z,7.9
2022-08-04T06:27:03.667Z,7.9
2022-08-04T06:28:04.246Z,7.9
2022-08-04T06:29:01.918Z,8.2
2022-08-04T06:30:01.201Z,8.2
2022-08-04T06:31:01.826Z,8.2
2022-08-04T06:32:28.475Z,8.2
2022-08-04T06:33:04.141Z,8.2
2022-08-04T06:34:01.754Z,7.9
2022-08-04T06:35:02.808Z,7.9
2022-08-04T06:36:02.770Z,7.9
2022-08-04T06:37:00.997Z,7.9
2022-08-04T06:38:01.879Z,7.9
2022-08-04T06:39:01.626Z,7.8
2022-08-04T06:40:02.507Z,7.8
2022-08-04T06:41:01.094Z,7.8
2022-08-04T06:42:17.031Z,7.8
2022-08-04T06:43:04.067Z,7.8
2022-08-04T06:44:03.897Z,8.1
2022-08-04T06:45:01.265Z,8.1
2022-08-04T06:46:01.658Z,8.1
2022-08-04T06:47:01.471Z,8.1
2022-08-04T06:48:02.265Z,8.1
2022-08-04T06:49:00.928Z,8.0
2022-08-04T06:51:25.420Z,8.0
2022-08-04T06:51:27.333Z,8.0
2022-08-04T06:52:02.792Z,8.0
2022-08-04T06:53:00.400Z,8.0
2022-08-04T06:54:00.309Z,7.7
2022-08-04T06:55:00.616Z,7.7
2022-08-04T06:56:00.806Z,7.7
2022-08-04T06:57:01.868Z,7.7
2022-08-04T06:58:03.355Z,7.7
2022-08-04T06:59:01.704Z,7.9
2022-08-04T07:00:05.042Z,7.9
2022-08-04T07:01:01.522Z,7.9
2022-08-04T07:02:00.723Z,7.9
2022-08-04T07:03:01.226Z,7.9
2022-08-04T07:04:00.321Z,7.9
2022-08-04T07:05:04.538Z,7.8
2022-08-04T07:06:05.965Z,7.8
2022-08-04T07:07:01.097Z,7.8
2022-08-04T07:08:00.471Z,7.8
2022-08-04T07:09:00.696Z,7.8
2022-08-04T07:10:01.183Z,7.8
2022-08-04T07:11:00.777Z,7.8
2022-08-04T07:12:00.459Z,7.8
2022-08-04T07:13:01.445Z,7.8
2022-08-04T07:14:01.615Z,7.8
2022-08-04T07:15:00.761Z,8.8
2022-08-04T07:16:00.740Z,8.8
2022-08-04T07:17:02.414Z,8.8
2022-08-04T07:18:00.564Z,8.8
2022-08-04T07:19:10.469Z,8.8
2022-08-04T07:20:01.273Z,8.3
2022-08-04T07:21:00.774Z,8.3
2022-08-04T07:22:17.833Z,8.3
2022-08-04T07:23:00.987Z,8.3
2022-08-04T07:24:00.423Z,8.3
2022-08-04T07:25:01.356Z,9.1
2022-08-04T07:26:11.942Z,9.1
2022-08-04T07:27:01.495Z,9.1
2022-08-04T07:28:00.273Z,9.1
2022-08-04T07:29:00.342Z,9.1
2022-08-04T07:30:00.653Z,8.5
2022-08-04T07:31:01.464Z,8.5
2022-08-04T07:32:00.963Z,8.5
2022-08-04T07:33:01.155Z,8.5
2022-08-04T07:34:16.575Z,8.5
2022-08-04T07:35:01.213Z,8.6
2022-08-04T07:36:06.039Z,8.6
2022-08-04T07:37:00.566Z,8.6
2022-08-04T07:38:00.365Z,8.6
2022-08-04T07:39:00.369Z,8.6
2022-08-04T07:40:00.809Z,8.0
2022-08-04T07:41:01.126Z,8.0
2022-08-04T07:42:02.155Z,8.0
2022-08-04T07:43:00.778Z,8.0
2022-08-04T07:44:00.792Z,8.0
2022-08-04T07:45:00.402Z,8.3
2022-08-04T07:46:00.622Z,8.3
2022-08-04T07:47:02.481Z,8.3
2022-08-04T07:48:04.750Z,8.3
2022-08-04T07:49:00.612Z,8.3
2022-08-04T07:50:00.402Z,8.2
2022-08-04T07:51:00.591Z,8.2
2022-08-04T07:52:01.026Z,8.2
2022-08-04T07:53:52.638Z,8.2
2022-08-04T07:54:00.861Z,8.2
2022-08-04T07:55:00.493Z,7.8
2022-08-04T07:56:01.607Z,7.8
2022-08-04T07:57:00.782Z,7.8
2022-08-04T07:58:00.348Z,7.8
2022-08-04T07:59:00.792Z,7.8
2022-08-04T08:00:01.062Z,7.2
2022-08-04T08:01:00.578Z,7.2
2022-08-04T08:02:01.063Z,7.2
2022-08-04T08:03:01.938Z,7.2
2022-08-04T08:04:00.740Z,7.2
2022-08-04T08:05:00.934Z,7.6
2022-08-04T08:06:30.959Z,7.6
2022-08-04T08:07:00.317Z,7.6
2022-08-04T08:08:00.374Z,7.6
2022-08-04T08:09:13.697Z,7.6
2022-08-04T08:10:00.373Z,7.3
2022-08-04T08:11:00.554Z,7.3
2022-08-04T08:12:37.644Z,7.3
2022-08-04T08:13:00.996Z,7.3
2022-08-04T08:14:01.184Z,7.3
2022-08-04T08:15:00.642Z,7.0
2022-08-04T08:16:01.866Z,7.0
2022-08-04T08:17:00.441Z,7.0
2022-08-04T08:18:00.923Z,7.0
2022-08-04T08:19:00.736Z,7.0
2022-08-04T08:20:00.898Z,7.3
2022-08-04T08:21:00.969Z,7.3
2022-08-04T08:22:02.110Z,7.3
2022-08-04T08:23:01.705Z,7.3
2022-08-04T08:24:00.660Z,7.3
2022-08-04T08:25:00.518Z,7.7
2022-08-04T08:26:01.160Z,7.7
2022-08-04T08:27:01.812Z,7.7
2022-08-04T08:28:03.121Z,7.7
2022-08-04T08:29:01.836Z,7.7
2022-08-04T08:30:00.258Z,7.3
2022-08-04T08:31:00.342Z,7.3
2022-08-04T08:32:07.727Z,7.3
2022-08-04T08:33:05.866Z,7.3
2022-08-04T08:34:00.520Z,7.3
2022-08-04T08:35:00.707Z,6.8
2022-08-04T08:36:03.676Z,6.8
2022-08-04T08:37:17.641Z,6.8
2022-08-04T08:38:03.881Z,6.8
2022-08-04T08:39:03.636Z,6.8
2022-08-04T08:40:40.678Z,6.9
2022-08-04T08:41:08.582Z,6.9
2022-08-04T08:42:19.686Z,6.9
2022-08-04T08:44:06.476Z,6.9
2022-08-04T08:44:29.983Z,6.9
2022-08-04T08:45:01.228Z,7.5
2022-08-04T08:46:38.748Z,7.5
2022-08-04T08:47:19.115Z,7.5
2022-08-04T08:48:10.922Z,7.5
2022-08-04T08:49:10.219Z,7.5
2022-08-04T08:50:11.187Z,8.6
2022-08-04T08:51:20.134Z,8.6
2022-08-04T08:52:10.182Z,8.6
2022-08-04T08:53:12.636Z,8.6
2022-08-04T08:54:20.249Z,8.6
2022-08-04T08:55:17.655Z,7.6
2022-08-04T08:56:10.201Z,7.6
2022-08-04T08:57:20.499Z,7.6
2022-08-04T08:58:20.131Z,7.6
2022-08-04T08:59:20.130Z,7.6
2022-08-04T09:00:20.163Z,7.1
2022-08-04T09:01:20.200Z,7.1
2022-08-04T09:02:20.129Z,7.1
2022-08-04T09:03:04.203Z,7.1
2022-08-04T09:04:22.866Z,7.1
2022-08-04T09:05:17.501Z,7.5
2022-08-04T09:06:06.210Z,7.5
2022-08-04T09:07:17.549Z,7.5
2022-08-04T09:08:20.144Z,7.5
2022-08-04T09:09:15.062Z,7.5
2022-08-04T09:10:06.008Z,7.7
2022-08-04T09:11:08.612Z,7.7
2022-08-04T09:12:14.467Z,7.7
2022-08-04T09:13:09.344Z,7.7
2022-08-04T09:14:07.787Z,7.7
2022-08-04T09:15:13.688Z,8.0
2022-08-04T09:16:16.800Z,8.0
2022-08-04T09:17:04.969Z,8.0
2022-08-04T09:18:06.172Z,8.0
2022-08-04T09:19:05.033Z,8.0
2022-08-04T09:20:09.032Z,7.3
2022-08-04T09:21:08.922Z,7.3
2022-08-04T09:22:04.175Z,7.3
2022-08-04T09:23:10.878Z,7.3
2022-08-04T09:24:35.779Z,7.3
2022-08-04T09:25:07.942Z,7.4
2022-08-04T09:26:07.935Z,7.4
2022-08-04T09:27:08.784Z,7.4
2022-08-04T09:28:09.443Z,7.4
2022-08-04T09:29:10.209Z,7.4
2022-08-04T09:30:05.430Z,7.6
2022-08-04T09:31:10.009Z,7.6
2022-08-04T09:32:06.445Z,7.6
2022-08-04T09:33:22.610Z,7.6
2022-08-04T09:34:10.459Z,7.6
2022-08-04T09:35:17.709Z,7.8
2022-08-04T09:36:06.055Z,7.8
2022-08-04T09:37:03.668Z,7.8
2022-08-04T09:38:09.317Z,7.8
2022-08-04T09:39:10.265Z,7.8
2022-08-04T09:40:08.787Z,7.6
2022-08-04T09:41:26.893Z,7.6
2022-08-04T09:42:17.969Z,7.6
2022-08-04T09:43:12.731Z,7.6
2022-08-04T09:44:50.860Z,7.6
2022-08-04T09:45:12.489Z,7.7
2022-08-04T09:46:12.389Z,7.7
2022-08-04T09:47:20.135Z,7.7
2022-08-04T09:48:14.106Z,7.7
2022-08-04T09:49:09.580Z,7.7
2022-08-04T09:50:11.215Z,7.8
2022-08-04T09:51:09.923Z,7.8
2022-08-04T09:52:08.652Z,7.8
2022-08-04T09:53:10.119Z,7.8
2022-08-04T09:54:06.656Z,7.8
2022-08-04T09:55:10.954Z,7.9
2022-08-04T09:56:03.474Z,7.9
2022-08-04T09:57:11.497Z,7.9
2022-08-04T09:58:07.737Z,7.9
2022-08-04T09:59:17.375Z,7.9
2022-08-04T10:00:04.773Z,7.5
2022-08-04T10:01:05.170Z,7.5
2022-08-04T10:02:06.652Z,7.5
2022-08-04T10:03:00.333Z,7.5
2022-08-04T10:04:04.811Z,7.5
2022-08-04T10:05:02.968Z,7.4
2022-08-04T10:06:19.657Z,7.4
2022-08-04T10:07:20.562Z,7.4
2022-08-04T10:08:16.089Z,7.4
2022-08-04T10:09:20.159Z,7.4
2022-08-04T10:10:10.166Z,7.1
2022-08-04T10:11:10.174Z,7.1
2022-08-04T10:12:11.771Z,7.1
2022-08-04T10:13:13.093Z,7.1
2022-08-04T10:14:09.464Z,7.1
2022-08-04T10:15:08.716Z,6.9
2022-08-04T10:16:10.181Z,6.9
2022-08-04T10:17:20.383Z,6.9
2022-08-04T10:18:10.226Z,6.9
2022-08-04T10:19:16.457Z,6.9
2022-08-04T10:20:44.653Z,7.5
2022-08-04T10:21:15.454Z,7.5
2022-08-04T10:22:30.043Z,7.5
2022-08-04T10:23:12.283Z,7.5
2022-08-04T10:24:12.454Z,7.5
2022-08-04T10:25:03.563Z,7.2
2022-08-04T10:26:11.199Z,7.2
2022-08-04T10:27:08.593Z,7.2
2022-08-04T10:28:07.902Z,7.2
2022-08-04T10:29:04.112Z,7.2
2022-08-04T10:30:04.197Z,6.1
2022-08-04T10:31:06.827Z,6.1
2022-08-04T10:32:10.733Z,6.1
2022-08-04T10:33:10.288Z,6.1
2022-08-04T10:34:13.002Z,6.1
2022-08-04T10:35:11.886Z,6.1
2022-08-04T10:36:03.763Z,6.1
2022-08-04T10:37:03.305Z,6.1
2022-08-04T10:38:22.953Z,6.1
2022-08-04T10:39:06.478Z,6.1
2022-08-04T10:40:06.045Z,5.8
2022-08-04T10:41:10.295Z,5.8
2022-08-04T10:42:11.205Z,5.8
2022-08-04T10:43:05.786Z,5.8
2022-08-04T10:44:10.203Z,5.8
2022-08-04T10:45:09.182Z,5.9
2022-08-04T10:46:04.607Z,5.9
2022-08-04T10:47:03.569Z,5.9
2022-08-04T10:48:10.744Z,5.9
2022-08-04T10:49:07.761Z,5.9
2022-08-04T10:50:02.160Z,6.0
2022-08-04T10:51:14.087Z,6.0
2022-08-04T10:52:13.300Z,6.0
2022-08-04T10:53:05.475Z,6.0
2022-08-04T10:54:06.000Z,6.0
2022-08-04T10:55:20.160Z,6.1
2022-08-04T10:56:08.878Z,6.1
2022-08-04T10:57:12.844Z,6.1
2022-08-04T10:58:03.180Z,6.1
2022-08-04T10:59:07.856Z,6.1
2022-08-04T11:00:05.566Z,5.6
2022-08-04T11:01:04.261Z,5.6
2022-08-04T11:02:15.014Z,5.6
2022-08-04T11:03:08.642Z,5.6
2022-08-04T11:04:04.718Z,5.6
2022-08-04T11:05:14.768Z,6.5
2022-08-04T11:06:00.286Z,6.5
2022-08-04T11:07:00.479Z,6.5
2022-08-04T11:08:08.766Z,6.5
2022-08-04T11:09:02.904Z,6.5
2022-08-04T11:10:00.600Z,6.0
2022-08-04T11:11:10.229Z,6.0
2022-08-04T11:12:08.870Z,6.0
2022-08-04T11:13:05.317Z,6.0
2022-08-04T11:14:11.448Z,6.0
2022-08-04T11:15:08.168Z,5.9
2022-08-04T11:16:04.251Z,5.9
2022-08-04T11:17:05.408Z,5.9
2022-08-04T11:18:16.543Z,5.9
2022-08-04T11:19:10.196Z,5.9
2022-08-04T11:20:35.304Z,6.3
2022-08-04T11:21:10.264Z,6.3
2022-08-04T11:22:09.280Z,6.3
2022-08-04T11:23:07.006Z,6.3
2022-08-04T11:24:12.528Z,6.3
2022-08-04T11:25:07.278Z,5.7
2022-08-04T11:26:11.620Z,5.7
2022-08-04T11:27:05.861Z,5.7
2022-08-04T11:28:13.049Z,5.7
2022-08-04T11:29:08.194Z,5.7
2022-08-04T11:30:05.114Z,5.9
2022-08-04T11:31:11.793Z,5.9
2022-08-04T11:32:04.771Z,5.9
2022-08-04T11:33:19.603Z,5.9
2022-08-04T11:34:10.204Z,5.9
2022-08-04T11:35:08.389Z,5.9
2022-08-04T11:36:10.141Z,5.9
2022-08-04T11:37:13.900Z,5.9
2022-08-04T11:38:08.928Z,5.9
2022-08-04T11:39:06.152Z,5.9
2022-08-04T11:40:08.358Z,5.7
2022-08-04T11:41:06.486Z,5.7
2022-08-04T11:42:02.283Z,5.7
2022-08-04T11:43:05.546Z,5.7
2022-08-04T11:44:07.878Z,5.7
2022-08-04T11:45:04.707Z,6.0
2022-08-04T11:46:08.436Z,6.0
2022-08-04T11:47:05.959Z,6.0
2022-08-04T11:48:04.839Z,6.0
2022-08-04T11:49:05.996Z,6.0
2022-08-04T11:50:03.843Z,5.8
2022-08-04T11:51:00.914Z,5.8
2022-08-04T11:52:02.114Z,5.8
2022-08-04T11:53:01.434Z,5.8
2022-08-04T11:54:00.690Z,5.8
2022-08-04T11:55:08.363Z,5.6
2022-08-04T11:56:09.536Z,5.6
2022-08-04T11:57:00.487Z,5.6
2022-08-04T11:58:00.589Z,5.6
2022-08-04T11:59:01.708Z,5.6
2022-08-04T12:00:07.259Z,5.9
2022-08-04T12:01:10.183Z,5.9
2022-08-04T12:02:08.842Z,5.9
2022-08-04T12:03:11.249Z,5.9
2022-08-04T12:04:04.323Z,5.9
2022-08-04T12:05:02.246Z,5.8
2022-08-04T12:06:12.024Z,5.8
2022-08-04T12:07:30.601Z,5.8
2022-08-04T12:08:05.665Z,5.8
2022-08-04T12:09:04.567Z,5.8
2022-08-04T12:10:11.181Z,5.9
2022-08-04T12:11:15.345Z,5.9
2022-08-04T12:12:20.129Z,5.9
2022-08-04T12:13:17.811Z,5.9
2022-08-04T12:14:12.038Z,5.9
2022-08-04T12:15:15.578Z,6.2
2022-08-04T12:16:13.876Z,6.2
2022-08-04T12:17:02.669Z,6.2
2022-08-04T12:18:08.022Z,6.2
2022-08-04T12:19:03.571Z,6.2
2022-08-04T12:20:04.439Z,7.1
2022-08-04T12:21:05.127Z,7.1
2022-08-04T12:22:07.599Z,7.1
2022-08-04T12:23:03.186Z,7.1
2022-08-04T12:24:04.181Z,7.1
2022-08-04T12:25:07.012Z,6.2
2022-08-04T12:26:07.114Z,6.2
2022-08-04T12:27:10.227Z,6.2
2022-08-04T12:28:04.913Z,6.2
2022-08-04T12:29:10.544Z,6.2
2022-08-04T12:30:57.805Z,6.0
2022-08-04T12:31:11.160Z,6.0
2022-08-04T12:32:10.557Z,6.0
2022-08-04T12:33:05.944Z,6.0
2022-08-04T12:34:08.009Z,6.0
2022-08-04T12:35:10.184Z,5.9
2022-08-04T12:36:19.132Z,5.9
2022-08-04T12:37:05.707Z,5.9
2022-08-04T12:38:12.553Z,5.9
2022-08-04T12:39:08.038Z,5.9
2022-08-04T12:40:28.358Z,5.8
2022-08-04T12:41:01.734Z,5.8
2022-08-04T12:42:06.138Z,5.8
2022-08-04T12:43:09.249Z,5.8
2022-08-04T12:44:05.980Z,5.8
2022-08-04T12:45:04.404Z,5.8
2022-08-04T12:46:04.398Z,5.8
2022-08-04T12:47:26.773Z,5.8
2022-08-04T12:48:03.659Z,5.8
2022-08-04T12:49:02.535Z,5.8
2022-08-04T12:50:03.083Z,6.0
2022-08-04T12:51:00.691Z,6.0
2022-08-04T12:52:08.419Z,6.0
2022-08-04T12:53:03.112Z,6.0
2022-08-04T12:54:02.044Z,6.0
2022-08-04T12:55:01.537Z,5.8
2022-08-04T12:56:02.493Z,5.8
2022-08-04T12:57:03.222Z,5.8
2022-08-04T12:58:10.501Z,5.8
2022-08-04T12:59:05.257Z,5.8
2022-08-04T13:00:00.438Z,6.4
2022-08-04T13:02:07.034Z,6.4
2022-08-04T13:02:07.465Z,6.4
2022-08-04T13:03:05.397Z,6.4
2022-08-04T13:04:13.190Z,6.4
2022-08-04T13:05:04.710Z,5.6
2022-08-04T13:06:00.401Z,5.6
2022-08-04T13:07:06.441Z,5.6
2022-08-04T13:08:02.635Z,5.6
2022-08-04T13:09:07.181Z,5.6
2022-08-04T13:10:09.891Z,5.9
2022-08-04T13:11:01.745Z,5.9
2022-08-04T13:12:04.728Z,5.9
2022-08-04T13:13:00.267Z,5.9
2022-08-04T13:14:25.579Z,5.9
2022-08-04T13:15:10.228Z,5.8
2022-08-04T13:16:02.185Z,5.8
2022-08-04T13:17:00.784Z,5.8
2022-08-04T13:18:04.266Z,5.8
2022-08-04T13:19:05.346Z,5.8
2022-08-04T13:20:00.687Z,6.0
2022-08-04T13:21:21.043Z,6.0
2022-08-04T13:22:02.699Z,6.0
2022-08-04T13:23:13.911Z,6.0
2022-08-04T13:24:10.680Z,6.0
2022-08-04T13:26:40.309Z,5.9
2022-08-04T13:26:43.211Z,5.9
2022-08-04T13:27:04.562Z,5.9
2022-08-04T13:28:01.763Z,5.9
2022-08-04T13:29:16.622Z,5.9
2022-08-04T13:30:04.046Z,5.9
2022-08-04T13:31:05.016Z,7.1
2022-08-04T13:32:01.599Z,7.1
2022-08-04T13:33:04.771Z,7.1
2022-08-04T13:34:05.089Z,7.1
2022-08-04T13:35:01.150Z,6.5
2022-08-04T13:36:01.403Z,6.5
2022-08-04T13:37:01.948Z,6.5
2022-08-04T13:38:00.672Z,6.5
2022-08-04T13:39:05.731Z,6.5
2022-08-04T13:40:03.362Z,5.9
2022-08-04T13:41:03.396Z,5.9
2022-08-04T13:42:07.097Z,5.9